sensor_id;sensor_type;location;lat;lon;timestamp;pressure;altitude;pressure_sealevel;temperature;humidity
71643;BME280;59438;45.014;39.006;2023-03-25T00:01:43;101519.75;;;8.77;74.70
71643;BME280;59438;45.014;39.006;2023-03-25T00:04:09;101510.22;;;8.74;74.74
71643;BME280;59438;45.014;39.006;2023-03-25T00:06:35;101504.13;;;8.72;74.55
71643;BME280;59438;45.014;39.006;2023-03-25T00:09:03;101493.75;;;8.67;74.73
71643;BME280;59438;45.014;39.006;2023-03-25T00:11:29;101499.06;;;8.61;74.67
71643;BME280;59438;45.014;39.006;2023-03-25T00:13:56;101493.97;;;8.54;74.71
71643;BME280;59438;45.014;39.006;2023-03-25T00:16:22;101497.59;;;8.45;74.59
71643;BME280;59438;45.014;39.006;2023-03-25T00:18:49;101493.28;;;8.38;74.87
71643;BME280;59438;45.014;39.006;2023-03-25T00:21:15;101505.63;;;8.31;74.87
71643;BME280;59438;45.014;39.006;2023-03-25T00:23:41;101495.31;;;8.20;74.94
71643;BME280;59438;45.014;39.006;2023-03-25T00:26:10;101499.72;;;8.15;75.42
71643;BME280;59438;45.014;39.006;2023-03-25T00:28:37;101499.78;;;8.14;75.37
71643;BME280;59438;45.014;39.006;2023-03-25T00:31:05;101483.28;;;8.07;75.96
71643;BME280;59438;45.014;39.006;2023-03-25T00:33:33;101493.66;;;8.13;75.57
71643;BME280;59438;45.014;39.006;2023-03-25T00:35:59;101489.31;;;8.12;75.48
71643;BME280;59438;45.014;39.006;2023-03-25T00:38:26;101488.47;;;8.12;75.72
71643;BME280;59438;45.014;39.006;2023-03-25T00:40:52;101491.03;;;8.15;75.65
71643;BME280;59438;45.014;39.006;2023-03-25T00:43:20;101480.53;;;8.18;76.13
71643;BME280;59438;45.014;39.006;2023-03-25T00:45:46;101476.13;;;8.20;75.91
71643;BME280;59438;45.014;39.006;2023-03-25T00:48:13;101475.16;;;8.25;75.42
71643;BME280;59438;45.014;39.006;2023-03-25T00:50:39;101464.75;;;8.21;75.30
71643;BME280;59438;45.014;39.006;2023-03-25T00:53:05;101463.81;;;8.25;75.55
71643;BME280;59438;45.014;39.006;2023-03-25T00:55:32;101465.63;;;8.21;75.50
71643;BME280;59438;45.014;39.006;2023-03-25T00:57:58;101473.56;;;8.15;75.72
71643;BME280;59438;45.014;39.006;2023-03-25T01:00:26;101478.88;;;8.11;75.98
71643;BME280;59438;45.014;39.006;2023-03-25T01:02:52;101473.72;;;8.06;75.60
71643;BME280;59438;45.014;39.006;2023-03-25T01:05:19;101462.44;;;8.01;75.65
71643;BME280;59438;45.014;39.006;2023-03-25T01:07:45;101465.97;;;7.97;75.62
71643;BME280;59438;45.014;39.006;2023-03-25T01:10:12;101472.13;;;7.93;75.65
71643;BME280;59438;45.014;39.006;2023-03-25T01:12:38;101469.63;;;7.86;75.60
71643;BME280;59438;45.014;39.006;2023-03-25T01:15:06;101467.97;;;7.79;75.92
71643;BME280;59438;45.014;39.006;2023-03-25T01:17:33;101468.91;;;7.74;76.28
71643;BME280;59438;45.014;39.006;2023-03-25T01:20:00;101466.34;;;7.69;76.10
71643;BME280;59438;45.014;39.006;2023-03-25T01:22:26;101467.28;;;7.65;76.03
71643;BME280;59438;45.014;39.006;2023-03-25T01:24:53;101467.34;;;7.60;76.15
71643;BME280;59438;45.014;39.006;2023-03-25T01:27:19;101455.22;;;7.53;76.10
71643;BME280;59438;45.014;39.006;2023-03-25T01:29:45;101463.97;;;7.49;76.32
71643;BME280;59438;45.014;39.006;2023-03-25T01:32:12;101459.69;;;7.45;76.11
71643;BME280;59438;45.014;39.006;2023-03-25T01:34:39;101470.19;;;7.40;76.23
71643;BME280;59438;45.014;39.006;2023-03-25T01:37:06;101455.44;;;7.35;75.94
71643;BME280;59438;45.014;39.006;2023-03-25T01:39:32;101458.09;;;7.33;75.72
71643;BME280;59438;45.014;39.006;2023-03-25T01:41:58;101452.91;;;7.29;76.39
71643;BME280;59438;45.014;39.006;2023-03-25T01:45:10;101457.28;;;7.28;77.44
71643;BME280;59438;45.014;39.006;2023-03-25T01:47:37;101459.09;;;7.23;76.67
71643;BME280;59438;45.014;39.006;2023-03-25T01:50:06;101447.78;;;7.19;76.84
71643;BME280;59438;45.014;39.006;2023-03-25T01:52:33;101446.94;;;7.16;76.10
71643;BME280;59438;45.014;39.006;2023-03-25T01:54:59;101451.34;;;7.12;76.68
71643;BME280;59438;45.014;39.006;2023-03-25T01:57:26;101450.53;;;7.07;76.87
71643;BME280;59438;45.014;39.006;2023-03-25T01:59:53;101444.47;;;7.03;76.92
71643;BME280;59438;45.014;39.006;2023-03-25T02:02:21;101438.41;;;7.01;77.13
71643;BME280;59438;45.014;39.006;2023-03-25T02:04:52;101443.66;;;6.98;77.21
71643;BME280;59438;45.014;39.006;2023-03-25T02:07:22;101434.09;;;6.97;76.95
71643;BME280;59438;45.014;39.006;2023-03-25T02:09:48;101436.72;;;6.96;76.39
71643;BME280;59438;45.014;39.006;2023-03-25T02:12:15;101442.81;;;6.95;77.22
71643;BME280;59438;45.014;39.006;2023-03-25T02:14:41;101443.72;;;6.92;76.99
71643;BME280;59438;45.014;39.006;2023-03-25T02:17:13;101443.75;;;6.89;77.99
71643;BME280;59438;45.014;39.006;2023-03-25T02:20:04;101441.97;;;6.93;78.78
71643;BME280;59438;45.014;39.006;2023-03-25T02:26:14;101451.56;;;6.91;78.38
71643;BME280;59438;45.014;39.006;2023-03-25T02:28:50;101448.13;;;6.89;77.32
71643;BME280;59438;45.014;39.006;2023-03-25T02:31:36;101450.75;;;6.85;77.83
71643;BME280;59438;45.014;39.006;2023-03-25T02:34:44;101453.41;;;6.82;78.26
71643;BME280;59438;45.014;39.006;2023-03-25T02:38:14;101456.91;;;6.80;78.41
71643;BME280;59438;45.014;39.006;2023-03-25T02:40:44;101456.97;;;6.72;77.92
71643;BME280;59438;45.014;39.006;2023-03-25T02:43:18;101477.88;;;6.69;77.85
71643;BME280;59438;45.014;39.006;2023-03-25T02:45:48;101471.84;;;6.64;76.94
71643;BME280;59438;45.014;39.006;2023-03-25T02:48:21;101479.69;;;6.62;78.01
71643;BME280;59438;45.014;39.006;2023-03-25T02:50:51;101462.31;;;6.60;77.31
71643;BME280;59438;45.014;39.006;2023-03-25T02:53:24;101459.75;;;6.52;78.47
71643;BME280;59438;45.014;39.006;2023-03-25T02:55:51;101471.88;;;6.59;77.25
71643;BME280;59438;45.014;39.006;2023-03-25T02:58:20;101472.75;;;6.57;77.77
71643;BME280;59438;45.014;39.006;2023-03-25T03:00:48;101482.34;;;6.56;77.49
71643;BME280;59438;45.014;39.006;2023-03-25T03:03:15;101478.00;;;6.54;76.96
71643;BME280;59438;45.014;39.006;2023-03-25T03:05:43;101478.91;;;6.53;77.78
71643;BME280;59438;45.014;39.006;2023-03-25T03:08:23;101480.63;;;6.52;78.31
71643;BME280;59438;45.014;39.006;2023-03-25T03:11:01;101475.44;;;6.51;77.82
71643;BME280;59438;45.014;39.006;2023-03-25T03:13:41;101475.44;;;6.49;78.78
71643;BME280;59438;45.014;39.006;2023-03-25T03:16:21;101481.53;;;6.50;78.58
71643;BME280;59438;45.014;39.006;2023-03-25T03:18:56;101470.28;;;6.43;78.16
71643;BME280;59438;45.014;39.006;2023-03-25T03:21:30;101472.84;;;6.49;78.47
71643;BME280;59438;45.014;39.006;2023-03-25T03:24:08;101482.38;;;6.50;79.00
71643;BME280;59438;45.014;39.006;2023-03-25T03:26:39;101482.38;;;6.52;78.21
71643;BME280;59438;45.014;39.006;2023-03-25T03:29:11;101485.84;;;6.54;78.36
71643;BME280;59438;45.014;39.006;2023-03-25T03:31:42;101484.09;;;6.57;78.69
71643;BME280;59438;45.014;39.006;2023-03-25T03:34:17;101487.53;;;6.59;78.19
71643;BME280;59438;45.014;39.006;2023-03-25T03:36:47;101491.81;;;6.66;78.00
71643;BME280;59438;45.014;39.006;2023-03-25T03:39:21;101478.72;;;6.74;78.96
71643;BME280;59438;45.014;39.006;2023-03-25T03:41:51;101488.25;;;6.80;78.73
71643;BME280;59438;45.014;39.006;2023-03-25T03:44:20;101483.78;;;6.91;78.53
71643;BME280;59438;45.014;39.006;2023-03-25T03:46:51;101480.19;;;7.00;78.98
71643;BME280;59438;45.014;39.006;2023-03-25T03:49:20;101484.44;;;7.13;78.45
71643;BME280;59438;45.014;39.006;2023-03-25T03:51:51;101480.84;;;7.25;78.45
71643;BME280;59438;45.014;39.006;2023-03-25T03:54:22;101474.69;;;7.29;78.61
71643;BME280;59438;45.014;39.006;2023-03-25T03:56:52;101493.66;;;7.46;78.34
71643;BME280;59438;45.014;39.006;2023-03-25T03:59:26;101496.13;;;7.57;78.56
71643;BME280;59438;45.014;39.006;2023-03-25T04:01:58;101485.59;;;7.65;78.58
71643;BME280;59438;45.014;39.006;2023-03-25T04:04:25;101489.81;;;7.75;77.69
71643;BME280;59438;45.014;39.006;2023-03-25T04:06:56;101482.72;;;7.83;78.36
71643;BME280;59438;45.014;39.006;2023-03-25T04:09:32;101486.06;;;7.95;78.75
71643;BME280;59438;45.014;39.006;2023-03-25T04:12:04;101486.91;;;7.97;78.31
71643;BME280;59438;45.014;39.006;2023-03-25T04:14:32;101490.19;;;8.13;77.87
71643;BME280;59438;45.014;39.006;2023-03-25T04:16:58;101494.44;;;8.20;78.03
71643;BME280;59438;45.014;39.006;2023-03-25T04:19:25;101500.44;;;8.28;77.77
71643;BME280;59438;45.014;39.006;2023-03-25T04:21:52;101499.44;;;8.37;77.81
71643;BME280;59438;45.014;39.006;2023-03-25T04:24:18;101506.31;;;8.45;77.68
71643;BME280;59438;45.014;39.006;2023-03-25T04:26:46;101511.44;;;8.53;78.15
71643;BME280;59438;45.014;39.006;2023-03-25T04:29:13;101510.41;;;8.63;77.59
71643;BME280;59438;45.014;39.006;2023-03-25T04:31:39;101509.38;;;8.71;77.72
71643;BME280;59438;45.014;39.006;2023-03-25T04:34:05;101518.00;;;8.79;77.38
71643;BME280;59438;45.014;39.006;2023-03-25T04:36:32;101514.41;;;8.84;77.29
71643;BME280;59438;45.014;39.006;2023-03-25T04:38:58;101521.31;;;8.88;76.87
71643;BME280;59438;45.014;39.006;2023-03-25T04:41:25;101523.84;;;8.93;76.66
71643;BME280;59438;45.014;39.006;2023-03-25T04:43:53;101523.75;;;8.99;77.20
71643;BME280;59438;45.014;39.006;2023-03-25T04:46:19;101531.56;;;9.02;76.67
71643;BME280;59438;45.014;39.006;2023-03-25T04:48:45;101530.63;;;9.06;77.05
71643;BME280;59438;45.014;39.006;2023-03-25T04:51:13;101517.63;;;9.02;76.96
71643;BME280;59438;45.014;39.006;2023-03-25T04:53:40;101533.06;;;9.16;76.88
71643;BME280;59438;45.014;39.006;2023-03-25T04:56:09;101526.88;;;9.20;76.46
71643;BME280;59438;45.014;39.006;2023-03-25T04:58:37;101523.28;;;9.25;77.07
71643;BME280;59438;45.014;39.006;2023-03-25T05:01:05;101521.44;;;9.31;76.59
71643;BME280;59438;45.014;39.006;2023-03-25T05:03:32;101520.47;;;9.36;76.20
71643;BME280;59438;45.014;39.006;2023-03-25T05:05:58;101520.44;;;9.39;76.42
71643;BME280;59438;45.014;39.006;2023-03-25T05:08:24;101531.69;;;9.44;76.34
71643;BME280;59438;45.014;39.006;2023-03-25T05:10:51;101522.75;;;9.53;76.85
71643;BME280;59438;45.014;39.006;2023-03-25T05:13:17;101520.84;;;9.61;76.13
71643;BME280;59438;45.014;39.006;2023-03-25T05:15:43;101522.38;;;9.73;76.10
71643;BME280;59438;45.014;39.006;2023-03-25T05:18:12;101514.25;;;9.85;75.78
71643;BME280;59438;45.014;39.006;2023-03-25T05:20:41;101518.41;;;9.96;75.60
71643;BME280;59438;45.014;39.006;2023-03-25T05:23:08;101524.22;;;10.10;76.03
71643;BME280;59438;45.014;39.006;2023-03-25T05:25:35;101526.53;;;10.24;75.31
71643;BME280;59438;45.014;39.006;2023-03-25T05:28:01;101533.34;;;10.34;75.54
71643;BME280;59438;45.014;39.006;2023-03-25T05:30:28;101530.59;;;10.39;73.93
71643;BME280;59438;45.014;39.006;2023-03-25T05:32:54;101534.16;;;10.38;73.85
71643;BME280;59438;45.014;39.006;2023-03-25T05:35:22;101524.59;;;10.34;74.38
71643;BME280;59438;45.014;39.006;2023-03-25T05:37:48;101537.78;;;10.31;73.54
71643;BME280;59438;45.014;39.006;2023-03-25T05:40:14;101529.06;;;10.27;74.54
71643;BME280;59438;45.014;39.006;2023-03-25T05:42:41;101536.81;;;10.35;74.71
71643;BME280;59438;45.014;39.006;2023-03-25T05:45:09;101534.91;;;10.41;74.00
71643;BME280;59438;45.014;39.006;2023-03-25T05:47:35;101527.84;;;10.45;73.98
71643;BME280;59438;45.014;39.006;2023-03-25T05:50:02;101535.59;;;10.49;73.73
71643;BME280;59438;45.014;39.006;2023-03-25T05:52:29;101526.75;;;10.54;73.61
71643;BME280;59438;45.014;39.006;2023-03-25T05:54:56;101524.81;;;10.60;73.69
71643;BME280;59438;45.014;39.006;2023-03-25T05:57:22;101529.09;;;10.66;73.42
71643;BME280;59438;45.014;39.006;2023-03-25T05:59:48;101528.97;;;10.71;73.02
71643;BME280;59438;45.014;39.006;2023-03-25T06:02:15;101529.63;;;10.79;73.01
71643;BME280;59438;45.014;39.006;2023-03-25T06:04:42;101530.31;;;10.87;72.97
71643;BME280;59438;45.014;39.006;2023-03-25T06:07:10;101533.66;;;10.94;71.92
71643;BME280;59438;45.014;39.006;2023-03-25T06:09:38;101524.88;;;10.95;72.54
71643;BME280;59438;45.014;39.006;2023-03-25T06:12:05;101530.81;;;11.01;72.68
71643;BME280;59438;45.014;39.006;2023-03-25T06:14:32;101528.94;;;11.08;71.99
71643;BME280;59438;45.014;39.006;2023-03-25T06:16:58;101526.00;;;11.19;72.46
71643;BME280;59438;45.014;39.006;2023-03-25T06:19:24;101527.38;;;11.32;71.49
71643;BME280;59438;45.014;39.006;2023-03-25T06:21:51;101520.88;;;11.47;71.91
71643;BME280;59438;45.014;39.006;2023-03-25T06:24:17;101525.81;;;11.58;70.90
71643;BME280;59438;45.014;39.006;2023-03-25T06:26:45;101522.91;;;11.67;71.19
71643;BME280;59438;45.014;39.006;2023-03-25T06:29:11;101523.66;;;11.72;70.77
71643;BME280;59438;45.014;39.006;2023-03-25T06:31:37;101522.84;;;11.70;70.23
71643;BME280;59438;45.014;39.006;2023-03-25T06:34:04;101529.28;;;11.60;70.16
71643;BME280;59438;45.014;39.006;2023-03-25T06:36:30;101526.78;;;11.55;70.92
71643;BME280;59438;45.014;39.006;2023-03-25T06:38:56;101523.16;;;11.59;70.61
71643;BME280;59438;45.014;39.006;2023-03-25T06:41:23;101523.03;;;11.64;70.56
71643;BME280;59438;45.014;39.006;2023-03-25T06:43:51;101527.13;;;11.74;70.33
71643;BME280;59438;45.014;39.006;2023-03-25T06:46:17;101527.69;;;11.84;69.95
71643;BME280;59438;45.014;39.006;2023-03-25T06:48:43;101527.53;;;11.90;70.21
71643;BME280;59438;45.014;39.006;2023-03-25T06:51:10;101521.25;;;11.96;69.86
71643;BME280;59438;45.014;39.006;2023-03-25T06:53:36;101532.59;;;11.98;70.11
71643;BME280;59438;45.014;39.006;2023-03-25T06:56:02;101520.28;;;11.98;69.35
71643;BME280;59438;45.014;39.006;2023-03-25T06:58:29;101527.13;;;12.04;69.44
71643;BME280;59438;45.014;39.006;2023-03-25T07:00:57;101520.97;;;12.05;68.74
71643;BME280;59438;45.014;39.006;2023-03-25T07:03:23;101527.88;;;12.09;69.34
71643;BME280;59438;45.014;39.006;2023-03-25T07:05:49;101521.66;;;12.12;68.96
71643;BME280;59438;45.014;39.006;2023-03-25T07:08:16;101518.09;;;12.13;68.81
71643;BME280;59438;45.014;39.006;2023-03-25T07:10:42;101525.13;;;12.12;68.37
71643;BME280;59438;45.014;39.006;2023-03-25T07:13:09;101522.63;;;12.09;68.85
71643;BME280;59438;45.014;39.006;2023-03-25T07:15:35;101514.59;;;12.12;68.53
71643;BME280;59438;45.014;39.006;2023-03-25T07:18:03;101521.50;;;12.16;68.68
71643;BME280;59438;45.014;39.006;2023-03-25T07:20:29;101519.53;;;12.23;68.30
71643;BME280;59438;45.014;39.006;2023-03-25T07:22:56;101515.16;;;12.23;68.43
71643;BME280;59438;45.014;39.006;2023-03-25T07:25:22;101524.75;;;12.24;68.17
71643;BME280;59438;45.014;39.006;2023-03-25T07:27:48;101520.31;;;12.26;68.10
71643;BME280;59438;45.014;39.006;2023-03-25T07:30:15;101507.88;;;12.32;68.24
71643;BME280;59438;45.014;39.006;2023-03-25T07:32:43;101510.41;;;12.35;67.57
71643;BME280;59438;45.014;39.006;2023-03-25T07:35:11;101497.84;;;12.43;67.45
71643;BME280;59438;45.014;39.006;2023-03-25T07:37:38;101505.50;;;12.50;67.85
71643;BME280;59438;45.014;39.006;2023-03-25T07:40:05;101496.59;;;12.55;67.43
71643;BME280;59438;45.014;39.006;2023-03-25T07:42:32;101496.63;;;12.53;67.57
71643;BME280;59438;45.014;39.006;2023-03-25T07:44:58;101492.13;;;12.57;67.34
71643;BME280;59438;45.014;39.006;2023-03-25T07:47:24;101489.34;;;12.61;67.08
71643;BME280;59438;45.014;39.006;2023-03-25T07:49:51;101488.28;;;12.67;67.19
71643;BME280;59438;45.014;39.006;2023-03-25T07:52:19;101475.75;;;12.74;66.92
71643;BME280;59438;45.014;39.006;2023-03-25T07:54:45;101469.16;;;12.87;67.20
71643;BME280;59438;45.014;39.006;2023-03-25T07:57:11;101473.84;;;13.04;66.87
71643;BME280;59438;45.014;39.006;2023-03-25T07:59:38;101469.78;;;13.19;66.66
71643;BME280;59438;45.014;39.006;2023-03-25T08:02:04;101453.75;;;13.25;66.34
71643;BME280;59438;45.014;39.006;2023-03-25T08:04:31;101412.91;;;13.12;66.20
71643;BME280;59438;45.014;39.006;2023-03-25T08:06:57;101447.78;;;13.45;65.80
71643;BME280;59438;45.014;39.006;2023-03-25T08:09:25;101452.66;;;13.56;65.00
71643;BME280;59438;45.014;39.006;2023-03-25T08:11:51;101439.50;;;13.54;65.59
71643;BME280;59438;45.014;39.006;2023-03-25T08:14:18;101448.13;;;13.59;65.23
71643;BME280;59438;45.014;39.006;2023-03-25T08:16:44;101439.41;;;13.57;65.55
71643;BME280;59438;45.014;39.006;2023-03-25T08:19:10;101437.94;;;13.72;65.26
71643;BME280;59438;45.014;39.006;2023-03-25T08:21:37;101442.81;;;13.83;65.23
71643;BME280;59438;45.014;39.006;2023-03-25T08:24:04;101438.84;;;13.95;65.01
71643;BME280;59438;45.014;39.006;2023-03-25T08:26:33;101440.28;;;14.02;63.64
71643;BME280;59438;45.014;39.006;2023-03-25T08:29:00;101436.13;;;13.96;64.05
71643;BME280;59438;45.014;39.006;2023-03-25T08:31:27;101430.28;;;13.88;64.23
71643;BME280;59438;45.014;39.006;2023-03-25T08:33:54;101426.78;;;13.87;64.46
71643;BME280;59438;45.014;39.006;2023-03-25T08:36:20;101406.53;;;13.88;64.86
71643;BME280;59438;45.014;39.006;2023-03-25T08:38:47;101421.00;;;14.00;64.28
71643;BME280;59438;45.014;39.006;2023-03-25T08:41:13;101415.72;;;14.00;64.35
71643;BME280;59438;45.014;39.006;2023-03-25T08:43:41;101404.13;;;14.04;63.76
71643;BME280;59438;45.014;39.006;2023-03-25T08:46:07;101405.91;;;14.03;64.12
71643;BME280;59438;45.014;39.006;2023-03-25T08:48:34;101396.28;;;14.02;64.31
71643;BME280;59438;45.014;39.006;2023-03-25T08:51:00;101395.22;;;14.06;64.01
71643;BME280;59438;45.014;39.006;2023-03-25T08:53:26;101384.53;;;14.09;64.23
71643;BME280;59438;45.014;39.006;2023-03-25T08:55:53;101398.47;;;14.13;63.48
71643;BME280;59438;45.014;39.006;2023-03-25T08:58:20;101390.78;;;14.07;63.67
71643;BME280;59438;45.014;39.006;2023-03-25T09:00:49;101380.72;;;13.95;63.27
71643;BME280;59438;45.014;39.006;2023-03-25T09:03:15;101380.22;;;13.85;63.92
71643;BME280;59438;45.014;39.006;2023-03-25T09:05:42;101376.13;;;13.78;64.25
71643;BME280;59438;45.014;39.006;2023-03-25T09:08:08;101365.72;;;13.73;64.04
71643;BME280;59438;45.014;39.006;2023-03-25T09:10:34;101370.28;;;13.69;64.27
71643;BME280;59438;45.014;39.006;2023-03-25T09:13:01;101357.69;;;13.76;64.70
71643;BME280;59438;45.014;39.006;2023-03-25T09:15:27;101354.81;;;13.82;65.03
71643;BME280;59438;45.014;39.006;2023-03-25T09:17:55;101359.59;;;13.95;64.67
71643;BME280;59438;45.014;39.006;2023-03-25T09:20:22;101363.53;;;14.06;64.50
71643;BME280;59438;45.014;39.006;2023-03-25T09:22:48;101360.91;;;14.27;64.18
71643;BME280;59438;45.014;39.006;2023-03-25T09:25:15;101356.41;;;14.49;64.03
71643;BME280;59438;45.014;39.006;2023-03-25T09:27:41;101351.81;;;14.75;63.28
71643;BME280;59438;45.014;39.006;2023-03-25T09:30:08;101358.78;;;14.97;62.97
71643;BME280;59438;45.014;39.006;2023-03-25T09:32:35;101360.59;;;15.15;62.07
71643;BME280;59438;45.014;39.006;2023-03-25T09:35:03;101338.16;;;15.24;61.22
71643;BME280;59438;45.014;39.006;2023-03-25T09:37:30;101343.88;;;15.34;61.79
71643;BME280;59438;45.014;39.006;2023-03-25T09:39:56;101329.50;;;15.39;61.57
71643;BME280;59438;45.014;39.006;2023-03-25T09:42:42;101344.72;;;15.53;60.56
71643;BME280;59438;45.014;39.006;2023-03-25T09:45:24;101346.31;;;15.57;60.52
71643;BME280;59438;45.014;39.006;2023-03-25T09:47:56;101328.47;;;15.42;60.50
71643;BME280;59438;45.014;39.006;2023-03-25T09:50:28;101341.53;;;15.46;59.99
71643;BME280;59438;45.014;39.006;2023-03-25T09:52:56;101343.88;;;15.52;61.88
71643;BME280;59438;45.014;39.006;2023-03-25T09:55:27;101336.72;;;15.36;60.02
71643;BME280;59438;45.014;39.006;2023-03-25T09:58:00;101345.03;;;15.28;59.94
71643;BME280;59438;45.014;39.006;2023-03-25T10:00:27;101339.59;;;15.31;61.03
71643;BME280;59438;45.014;39.006;2023-03-25T10:03:02;101344.53;;;15.39;59.84
71643;BME280;59438;45.014;39.006;2023-03-25T10:05:47;101345.03;;;15.47;60.06
71643;BME280;59438;45.014;39.006;2023-03-25T10:08:25;101347.03;;;15.61;60.32
71643;BME280;59438;45.014;39.006;2023-03-25T10:11:01;101352.09;;;15.65;59.49
71643;BME280;59438;45.014;39.006;2023-03-25T10:13:39;101336.44;;;15.61;59.83
71643;BME280;59438;45.014;39.006;2023-03-25T10:16:14;101335.84;;;15.54;59.21
71643;BME280;59438;45.014;39.006;2023-03-25T10:18:58;101331.72;;;15.48;59.70
71643;BME280;59438;45.014;39.006;2023-03-25T10:21:37;101323.41;;;15.37;59.56
71643;BME280;59438;45.014;39.006;2023-03-25T10:24:15;101332.59;;;15.30;59.53
71643;BME280;59438;45.014;39.006;2023-03-25T10:26:44;101327.69;;;15.02;59.76
71643;BME280;59438;45.014;39.006;2023-03-25T10:29:14;101318.69;;;14.87;60.72
71643;BME280;59438;45.014;39.006;2023-03-25T10:31:50;101319.75;;;14.83;59.98
71643;BME280;59438;45.014;39.006;2023-03-25T10:34:18;101314.19;;;14.89;60.59
71643;BME280;59438;45.014;39.006;2023-03-25T10:36:49;101309.25;;;15.00;60.32
71643;BME280;59438;45.014;39.006;2023-03-25T10:39:18;101310.88;;;15.03;60.42
71643;BME280;59438;45.014;39.006;2023-03-25T10:41:47;101302.38;;;14.96;60.14
71643;BME280;59438;45.014;39.006;2023-03-25T10:44:15;101307.97;;;15.09;60.34
71643;BME280;59438;45.014;39.006;2023-03-25T10:46:45;101298.09;;;15.13;59.63
71643;BME280;59438;45.014;39.006;2023-03-25T10:49:17;101292.59;;;15.17;59.55
71643;BME280;59438;45.014;39.006;2023-03-25T10:51:46;101305.13;;;15.14;59.79
71643;BME280;59438;45.014;39.006;2023-03-25T10:54:13;101298.59;;;15.02;60.22
71643;BME280;59438;45.014;39.006;2023-03-25T10:56:44;101286.66;;;14.93;60.52
71643;BME280;59438;45.014;39.006;2023-03-25T10:59:16;101292.25;;;15.06;59.89
71643;BME280;59438;45.014;39.006;2023-03-25T11:01:44;101277.94;;;15.10;60.80
71643;BME280;59438;45.014;39.006;2023-03-25T11:04:13;101273.84;;;15.03;60.45
71643;BME280;59438;45.014;39.006;2023-03-25T11:06:47;101274.72;;;15.03;60.15
71643;BME280;59438;45.014;39.006;2023-03-25T11:09:22;101286.16;;;15.04;59.72
71643;BME280;59438;45.014;39.006;2023-03-25T11:11:49;101276.44;;;15.04;60.33
71643;BME280;59438;45.014;39.006;2023-03-25T11:14:21;101265.22;;;14.99;60.17
71643;BME280;59438;45.014;39.006;2023-03-25T11:16:52;101266.28;;;15.14;60.16
71643;BME280;59438;45.014;39.006;2023-03-25T11:19:23;101272.50;;;15.32;60.16
71643;BME280;59438;45.014;39.006;2023-03-25T11:21:56;101270.34;;;15.40;59.92
71643;BME280;59438;45.014;39.006;2023-03-25T11:24:28;101253.94;;;15.51;59.44
71643;BME280;59438;45.014;39.006;2023-03-25T11:26:56;101258.38;;;15.68;60.01
71643;BME280;59438;45.014;39.006;2023-03-25T11:29:24;101241.38;;;15.74;59.77
71643;BME280;59438;45.014;39.006;2023-03-25T11:31:56;101249.94;;;15.79;59.35
71643;BME280;59438;45.014;39.006;2023-03-25T11:34:24;101244.09;;;15.72;59.55
71643;BME280;59438;45.014;39.006;2023-03-25T11:36:54;101254.81;;;15.69;59.93
71643;BME280;59438;45.014;39.006;2023-03-25T11:39:25;101248.78;;;15.84;60.13
71643;BME280;59438;45.014;39.006;2023-03-25T11:41:52;101249.47;;;16.05;59.87
71643;BME280;59438;45.014;39.006;2023-03-25T11:44:21;101235.91;;;16.29;59.29
71643;BME280;59438;45.014;39.006;2023-03-25T11:46:49;101235.69;;;16.49;58.66
71643;BME280;59438;45.014;39.006;2023-03-25T11:49:20;101235.03;;;16.62;58.16
71643;BME280;59438;45.014;39.006;2023-03-25T11:51:46;101226.66;;;16.69;58.87
71643;BME280;59438;45.014;39.006;2023-03-25T11:54:15;101219.47;;;16.71;57.79
71643;BME280;59438;45.014;39.006;2023-03-25T11:56:43;101220.22;;;16.73;58.67
71643;BME280;59438;45.014;39.006;2023-03-25T11:59:20;101207.16;;;16.70;57.67
71643;BME280;59438;45.014;39.006;2023-03-25T12:01:48;101213.91;;;16.60;58.47
71643;BME280;59438;45.014;39.006;2023-03-25T12:04:17;101194.28;;;16.47;58.12
71643;BME280;59438;45.014;39.006;2023-03-25T12:06:58;101198.72;;;16.46;57.85
71643;BME280;59438;45.014;39.006;2023-03-25T12:09:27;101199.31;;;16.36;58.45
71643;BME280;59438;45.014;39.006;2023-03-25T12:12:03;101192.72;;;16.27;58.41
71643;BME280;59438;45.014;39.006;2023-03-25T12:14:41;101202.94;;;16.17;58.23
71643;BME280;59438;45.014;39.006;2023-03-25T12:17:20;101190.00;;;16.11;58.63
71643;BME280;59438;45.014;39.006;2023-03-25T12:19:58;101183.69;;;16.14;58.67
71643;BME280;59438;45.014;39.006;2023-03-25T12:22:37;101192.94;;;16.22;58.84
71643;BME280;59438;45.014;39.006;2023-03-25T12:25:19;101175.94;;;16.26;58.83
71643;BME280;59438;45.014;39.006;2023-03-25T12:28:02;101166.22;;;16.27;58.14
71643;BME280;59438;45.014;39.006;2023-03-25T12:30:43;101174.63;;;16.18;58.26
71643;BME280;59438;45.014;39.006;2023-03-25T12:33:16;101170.94;;;16.20;59.37
71643;BME280;59438;45.014;39.006;2023-03-25T12:36:02;101163.84;;;16.05;58.22
71643;BME280;59438;45.014;39.006;2023-03-25T12:38:40;101163.63;;;15.92;58.28
71643;BME280;59438;45.014;39.006;2023-03-25T12:41:19;101161.69;;;15.78;58.42
71643;BME280;59438;45.014;39.006;2023-03-25T12:44:06;101141.03;;;15.67;58.63
71643;BME280;59438;45.014;39.006;2023-03-25T12:46:48;101144.69;;;15.65;58.85
71643;BME280;59438;45.014;39.006;2023-03-25T12:49:38;101147.84;;;15.73;58.91
71643;BME280;59438;45.014;39.006;2023-03-25T12:52:15;101154.06;;;15.72;58.83
71643;BME280;59438;45.014;39.006;2023-03-25T12:55:10;101146.88;;;15.74;58.63
71643;BME280;59438;45.014;39.006;2023-03-25T12:57:54;101141.41;;;15.77;58.80
71643;BME280;59438;45.014;39.006;2023-03-25T13:00:40;101138.13;;;15.89;58.46